createdAt,value
2022-12-01T00:01:08.117Z,51.70
2022-12-01T00:03:35.220Z,60.57
2022-12-01T00:06:13.476Z,60.33
2022-12-01T00:08:39.963Z,48.13
2022-12-01T00:11:09.129Z,52.03
2022-12-01T00:13:36.302Z,49.53
2022-12-01T00:16:10.755Z,53.07
2022-12-01T00:18:37.426Z,55.03
2022-12-01T00:21:03.981Z,60.67
2022-12-01T00:23:30.508Z,48.75
2022-12-01T00:26:03.134Z,56.40
2022-12-01T00:28:29.642Z,50.93
2022-12-01T00:30:56.146Z,52.08
2022-12-01T00:33:22.686Z,48.72
2022-12-01T00:35:49.185Z,46.42
2022-12-01T00:38:15.707Z,53.75
2022-12-01T00:40:42.687Z,47.10
2022-12-01T00:43:09.159Z,58.25
2022-12-01T00:45:35.701Z,52.47
2022-12-01T00:48:02.368Z,55.83
2022-12-01T00:50:28.908Z,50.33
2022-12-01T00:52:55.460Z,48.17
2022-12-01T00:55:22.001Z,53.75
2022-12-01T00:57:48.503Z,57.55
2022-12-01T01:00:17.317Z,51.75
2022-12-01T01:02:44.049Z,50.30
2022-12-01T01:05:10.604Z,48.77
2022-12-01T01:07:37.416Z,47.78
2022-12-01T01:10:04.347Z,46.70
2022-12-01T01:12:31.096Z,52.35
2022-12-01T01:14:57.624Z,52.05
2022-12-01T01:17:24.148Z,53.40
2022-12-01T01:19:52.969Z,49.25
2022-12-01T01:22:19.879Z,49.08
2022-12-01T01:24:46.468Z,45.05
2022-12-01T01:27:12.979Z,50.92
2022-12-01T01:29:39.579Z,43.47
2022-12-01T01:32:06.235Z,43.70
2022-12-01T01:34:32.725Z,51.38
2022-12-01T01:36:59.266Z,42.20
2022-12-01T01:39:25.822Z,44.92
2022-12-01T01:41:52.321Z,42.07
2022-12-01T01:45:03.883Z,43.63
2022-12-01T01:47:39.704Z,46.03
2022-12-01T01:50:12.654Z,44.10
2022-12-01T01:52:45.042Z,48.08
2022-12-01T01:55:12.792Z,42.70
2022-12-01T01:57:40.698Z,52.10
2022-12-01T02:00:10.312Z,43.17
2022-12-01T02:02:45.084Z,56.00
2022-12-01T02:05:34.470Z,45.83
2022-12-01T02:08:03.014Z,52.07
2022-12-01T02:11:14.610Z,45.30
2022-12-01T02:14:09.943Z,44.05
2022-12-01T02:16:58.188Z,45.50
2022-12-01T02:19:51.207Z,46.45
2022-12-01T02:22:39.946Z,42.20
2022-12-01T02:25:21.351Z,43.72
2022-12-01T02:28:13.196Z,42.03
2022-12-01T02:30:45.684Z,38.53
2022-12-01T02:33:29.862Z,48.20
2022-12-01T02:36:19.346Z,39.27
2022-12-01T02:38:54.374Z,43.35
2022-12-01T02:41:31.520Z,41.13
2022-12-01T02:44:03.904Z,37.78
2022-12-01T02:46:44.409Z,42.38
2022-12-01T02:49:19.046Z,40.87
2022-12-01T02:51:46.191Z,48.80
2022-12-01T02:54:14.849Z,54.30
2022-12-01T02:56:44.948Z,64.32
2022-12-01T02:59:13.319Z,93.00
2022-12-01T03:01:46.249Z,70.43
2022-12-01T03:04:38.032Z,71.68
2022-12-01T03:07:30.233Z,97.40
2022-12-01T03:10:27.756Z,115.97
2022-12-01T03:13:13.121Z,92.75
2022-12-01T03:15:59.925Z,83.37
2022-12-01T03:18:44.818Z,54.88
2022-12-01T03:21:42.370Z,110.22
2022-12-01T03:24:15.767Z,87.50
2022-12-01T03:26:46.129Z,100.15
2022-12-01T03:29:24.934Z,97.47
2022-12-01T03:31:56.994Z,106.47
2022-12-01T03:34:39.469Z,99.43
2022-12-01T03:37:37.917Z,114.10
2022-12-01T03:40:09.337Z,116.90
2022-12-01T03:42:42.035Z,74.80
2022-12-01T03:45:15.216Z,56.70
2022-12-01T03:47:41.896Z,49.17
2022-12-01T03:50:13.895Z,65.18
2022-12-01T03:52:46.722Z,50.40
2022-12-01T03:55:26.082Z,45.53
2022-12-01T03:58:07.552Z,52.28
2022-12-01T04:00:34.548Z,48.90
2022-12-01T04:03:04.381Z,47.85
2022-12-01T04:05:33.151Z,48.30
2022-12-01T04:08:00.308Z,46.33
2022-12-01T04:10:27.079Z,39.33
2022-12-01T04:12:59.262Z,48.38
2022-12-01T04:15:27.171Z,47.03
2022-12-01T04:17:54.304Z,45.72
2022-12-01T04:20:21.670Z,50.53
2022-12-01T04:22:48.839Z,65.63
2022-12-01T04:25:15.510Z,59.38
2022-12-01T04:27:42.135Z,65.80
2022-12-01T04:30:09.350Z,89.22
2022-12-01T04:32:41.016Z,93.43
2022-12-01T04:35:09.579Z,96.53
2022-12-01T04:37:36.589Z,88.22
2022-12-01T04:40:04.027Z,137.77
2022-12-01T04:42:30.718Z,140.63
2022-12-01T04:44:57.551Z,120.37
2022-12-01T04:47:24.135Z,195.20
2022-12-01T04:49:50.956Z,125.40
2022-12-01T04:52:17.818Z,166.98
2022-12-01T04:54:44.351Z,196.35
2022-12-01T04:57:10.989Z,121.10
2022-12-01T04:59:37.586Z,157.00
2022-12-01T05:02:04.308Z,178.18
2022-12-01T05:04:32.551Z,175.52
2022-12-01T05:06:59.110Z,162.65
2022-12-01T05:09:25.607Z,160.23
2022-12-01T05:11:52.143Z,182.68
2022-12-01T05:14:18.642Z,154.43
2022-12-01T05:16:45.291Z,153.18
2022-12-01T05:19:30.375Z,145.57
2022-12-01T05:21:57.088Z,166.80
2022-12-01T05:24:23.617Z,149.20
2022-12-01T05:26:50.192Z,137.23
2022-12-01T05:29:17.103Z,123.45
2022-12-01T05:31:45.576Z,147.00
2022-12-01T05:34:12.109Z,117.20
2022-12-01T05:36:38.623Z,199.02
2022-12-01T05:39:05.366Z,207.13
2022-12-01T05:41:32.136Z,133.02
2022-12-01T05:43:58.797Z,116.97
2022-12-01T05:46:25.509Z,247.57
2022-12-01T05:48:52.079Z,159.93
2022-12-01T05:51:18.607Z,201.82
2022-12-01T05:53:45.594Z,144.07
2022-12-01T05:56:12.293Z,160.48
2022-12-01T05:58:39.248Z,170.27
2022-12-01T06:01:06.784Z,188.32
2022-12-01T06:03:33.292Z,89.40
2022-12-01T06:05:59.953Z,188.32
2022-12-01T06:08:26.715Z,148.65
2022-12-01T06:10:53.328Z,156.30
2022-12-01T06:13:20.230Z,170.65
2022-12-01T06:15:56.178Z,124.03
2022-12-01T06:18:23.187Z,121.32
2022-12-01T06:20:49.726Z,121.70
2022-12-01T06:23:16.363Z,98.00
2022-12-01T06:25:43.722Z,212.20
2022-12-01T06:28:10.218Z,132.20
2022-12-01T06:30:36.847Z,168.80
2022-12-01T06:33:03.451Z,234.20
2022-12-01T06:35:30.005Z,196.30
2022-12-01T06:37:56.702Z,123.78
2022-12-01T06:40:23.419Z,150.65
2022-12-01T06:42:50.025Z,179.52
2022-12-01T06:45:16.670Z,180.27
2022-12-01T06:47:43.370Z,158.60
2022-12-01T06:50:12.368Z,175.43
2022-12-01T06:52:39.136Z,139.18
2022-12-01T06:55:06.290Z,144.68
2022-12-01T06:57:33.196Z,126.65
2022-12-01T07:00:00.003Z,156.17
2022-12-01T07:02:26.827Z,169.75
2022-12-01T07:04:53.450Z,110.97
2022-12-01T07:07:19.998Z,127.18
2022-12-01T07:09:46.832Z,124.15
2022-12-01T07:12:13.515Z,148.47
2022-12-01T07:14:42.420Z,167.85
2022-12-01T07:17:10.271Z,125.45
2022-12-01T07:19:36.956Z,126.65
2022-12-01T07:22:03.571Z,104.50
2022-12-01T07:24:30.926Z,68.03
2022-12-01T07:26:57.716Z,99.05
2022-12-01T07:29:24.411Z,82.68
2022-12-01T07:31:50.910Z,88.95
2022-12-01T07:34:17.462Z,72.43
2022-12-01T07:36:44.152Z,84.90
2022-12-01T07:39:10.653Z,91.25
2022-12-01T07:41:37.334Z,120.60
2022-12-01T07:44:04.373Z,107.60
2022-12-01T07:46:31.068Z,126.22
2022-12-01T07:48:58.091Z,110.10
2022-12-01T07:51:25.815Z,77.07
2022-12-01T07:53:53.736Z,83.93
2022-12-01T07:56:21.541Z,108.47
2022-12-01T07:58:48.734Z,75.53
2022-12-01T08:01:18.215Z,76.97
2022-12-01T08:03:45.129Z,102.60
2022-12-01T08:06:11.962Z,80.15
2022-12-01T08:08:40.171Z,74.53
2022-12-01T08:11:17.910Z,121.07
2022-12-01T08:13:44.766Z,82.80
2022-12-01T08:16:14.834Z,104.60
2022-12-01T08:18:42.277Z,101.25
2022-12-01T08:21:12.416Z,101.88
2022-12-01T08:23:39.940Z,92.28
2022-12-01T08:26:12.674Z,98.03
2022-12-01T08:28:40.098Z,72.60
2022-12-01T08:31:15.926Z,98.80
2022-12-01T08:33:42.619Z,55.05
2022-12-01T08:36:09.499Z,75.90
2022-12-01T08:38:36.072Z,63.60
2022-12-01T08:41:05.102Z,75.97
2022-12-01T08:43:56.730Z,61.05
2022-12-01T08:46:18.186Z,76.13
2022-12-01T08:48:44.753Z,62.20
2022-12-01T08:51:16.599Z,117.47
2022-12-01T08:53:46.124Z,78.53
2022-12-01T08:56:16.474Z,77.65
2022-12-01T08:58:43.408Z,128.70
2022-12-01T09:01:12.443Z,156.52
2022-12-01T09:03:39.722Z,74.90
2022-12-01T09:06:09.097Z,98.72
2022-12-01T09:08:36.787Z,76.50
2022-12-01T09:11:06.986Z,104.28
2022-12-01T09:13:35.338Z,102.90
2022-12-01T09:16:07.758Z,81.67
2022-12-01T09:18:34.411Z,79.70
2022-12-01T09:21:09.208Z,92.72
2022-12-01T09:23:35.772Z,94.85
2022-12-01T09:26:02.269Z,116.03
2022-12-01T09:28:28.795Z,94.40
2022-12-01T09:30:55.335Z,97.40
2022-12-01T09:33:21.840Z,82.70
2022-12-01T09:35:48.358Z,101.70
2022-12-01T09:38:14.834Z,107.25
2022-12-01T09:40:43.116Z,102.63
2022-12-01T09:43:40.868Z,81.55
2022-12-01T09:46:18.692Z,124.95
2022-12-01T09:48:47.935Z,151.02
2022-12-01T09:51:23.267Z,120.78
2022-12-01T09:53:56.799Z,51.53
2022-12-01T09:56:32.351Z,76.90
2022-12-01T09:59:05.623Z,114.13
2022-12-01T10:01:43.110Z,119.55
2022-12-01T10:04:35.575Z,85.60
2022-12-01T10:07:06.611Z,56.10
2022-12-01T10:09:56.451Z,52.05
2022-12-01T10:12:27.752Z,36.22
2022-12-01T10:15:05.775Z,57.17
2022-12-01T10:17:41.146Z,51.08
2022-12-01T10:20:30.173Z,60.70
2022-12-01T10:23:18.091Z,45.00
2022-12-01T10:25:44.561Z,57.85
2022-12-01T10:28:44.821Z,30.33
2022-12-01T10:31:26.492Z,52.22
2022-12-01T10:34:12.349Z,73.67
2022-12-01T10:36:39.170Z,48.47
2022-12-01T10:39:07.179Z,44.05
2022-12-01T10:41:37.649Z,66.18
2022-12-01T10:44:07.089Z,64.68
2022-12-01T10:46:49.333Z,56.53
2022-12-01T10:49:17.794Z,54.15
2022-12-01T10:51:58.374Z,82.47
2022-12-01T10:54:39.379Z,51.60
2022-12-01T10:57:13.869Z,42.30
2022-12-01T10:59:48.908Z,41.17
2022-12-01T11:02:26.060Z,71.90
2022-12-01T11:04:55.965Z,63.88
2022-12-01T11:07:44.226Z,43.10
2022-12-01T11:10:18.817Z,41.58
2022-12-01T11:12:53.154Z,42.93
2022-12-01T11:15:29.400Z,46.70
2022-12-01T11:17:59.932Z,43.28
2022-12-01T11:20:40.754Z,46.17
2022-12-01T11:23:28.340Z,43.55
2022-12-01T11:26:03.841Z,41.10
2022-12-01T11:28:31.874Z,47.30
2022-12-01T11:31:07.484Z,58.70
2022-12-01T11:33:45.288Z,58.83
2022-12-01T11:36:21.889Z,62.70
2022-12-01T11:38:49.154Z,62.23
2022-12-01T11:41:28.646Z,64.85
2022-12-01T11:44:01.575Z,56.58
2022-12-01T11:46:32.559Z,53.05
2022-12-01T11:49:00.286Z,65.28
2022-12-01T11:51:32.374Z,62.83
2022-12-01T11:54:13.594Z,71.85
2022-12-01T11:56:40.648Z,56.25
2022-12-01T11:59:15.922Z,67.25
2022-12-01T12:01:51.370Z,51.38
2022-12-01T12:04:35.359Z,54.57
2022-12-01T12:07:21.135Z,56.72
2022-12-01T12:09:59.450Z,54.45
2022-12-01T12:13:11.714Z,55.63
2022-12-01T12:15:44.403Z,56.70
2022-12-01T12:18:29.897Z,56.07
2022-12-01T12:21:08.337Z,53.28
2022-12-01T12:23:56.163Z,47.78
2022-12-01T12:26:25.783Z,53.03
2022-12-01T12:29:17.125Z,43.97
2022-12-01T12:32:01.901Z,50.57
2022-12-01T12:34:37.594Z,55.30
2022-12-01T12:37:41.045Z,45.67
2022-12-01T12:40:31.590Z,49.90
2022-12-01T12:43:19.504Z,52.13
2022-12-01T12:45:55.591Z,51.73
2022-12-01T12:48:38.734Z,43.10
2022-12-01T12:51:20.587Z,47.30
2022-12-01T12:53:53.522Z,51.80
2022-12-01T12:56:24.468Z,47.05
2022-12-01T12:58:59.518Z,50.30
2022-12-01T13:01:36.663Z,45.40
2022-12-01T13:04:21.509Z,54.22
2022-12-01T13:07:22.228Z,49.90
2022-12-01T13:10:32.487Z,51.30
2022-12-01T13:13:31.841Z,47.17
2022-12-01T13:16:00.186Z,48.08
2022-12-01T13:18:36.460Z,48.22
2022-12-01T13:21:05.610Z,48.63
2022-12-01T13:23:33.943Z,53.55
2022-12-01T13:26:04.817Z,50.03
2022-12-01T13:28:47.728Z,51.80
2022-12-01T13:31:16.833Z,55.85
2022-12-01T13:33:57.190Z,47.95
2022-12-01T13:36:45.738Z,43.35
2022-12-01T13:39:23.571Z,49.40
2022-12-01T13:42:08.648Z,52.80
2022-12-01T13:44:41.980Z,53.90
2022-12-01T13:47:11.502Z,46.80
2022-12-01T13:49:52.530Z,49.63
2022-12-01T13:52:22.161Z,48.93
2022-12-01T13:55:07.356Z,50.75
2022-12-01T13:57:39.657Z,48.60
2022-12-01T14:00:28.099Z,53.13
2022-12-01T14:03:13.055Z,49.63
2022-12-01T14:05:39.773Z,48.27
2022-12-01T14:08:21.279Z,48.47
2022-12-01T14:11:03.397Z,46.20
2022-12-01T14:13:31.779Z,55.45
2022-12-01T14:16:00.588Z,49.28
2022-12-01T14:18:36.688Z,52.07
2022-12-01T14:21:06.224Z,45.15
2022-12-01T14:23:35.350Z,45.47
2022-12-01T14:26:16.830Z,51.88
2022-12-01T14:28:55.676Z,47.60
2022-12-01T14:31:24.137Z,46.63
2022-12-01T14:34:14.443Z,50.85
2022-12-01T14:36:49.280Z,42.53
2022-12-01T14:39:21.375Z,46.40
2022-12-01T14:41:51.622Z,49.38
2022-12-01T14:44:36.478Z,54.03
2022-12-01T14:47:29.441Z,52.67
2022-12-01T14:50:02.062Z,51.65
2022-12-01T14:52:28.544Z,51.70
2022-12-01T14:54:58.603Z,47.92
2022-12-01T14:57:32.164Z,51.80
2022-12-01T15:00:14.080Z,45.17
2022-12-01T15:02:44.399Z,45.92
2022-12-01T15:05:16.728Z,42.35
2022-12-01T15:07:47.432Z,46.47
2022-12-01T15:10:20.725Z,46.23
2022-12-01T15:12:48.240Z,50.17
2022-12-01T15:15:32.624Z,50.42
2022-12-01T15:18:01.812Z,45.63
2022-12-01T15:20:37.368Z,53.38
2022-12-01T15:23:14.974Z,49.77
2022-12-01T15:25:44.854Z,52.80
2022-12-01T15:28:29.301Z,56.58
2022-12-01T15:30:56.366Z,56.13
2022-12-01T15:33:30.626Z,58.95
2022-12-01T15:36:00.681Z,70.90
2022-12-01T15:38:32.363Z,68.97
2022-12-01T15:44:00.741Z,63.40
2022-12-01T15:46:30.712Z,49.55
2022-12-01T15:49:32.275Z,50.73
2022-12-01T15:52:11.328Z,48.38
2022-12-01T15:54:38.805Z,45.97
2022-12-01T15:57:06.269Z,53.80
2022-12-01T15:59:35.654Z,42.90
2022-12-01T16:02:30.527Z,47.33
2022-12-01T16:05:03.266Z,45.08
2022-12-01T16:08:12.182Z,47.28
2022-12-01T16:10:36.766Z,41.78
2022-12-01T16:13:37.472Z,37.35
2022-12-01T16:16:32.069Z,35.63
2022-12-01T16:19:10.286Z,37.38
2022-12-01T16:21:58.193Z,39.03
2022-12-01T16:24:37.710Z,43.10
2022-12-01T16:27:30.162Z,46.13
2022-12-01T16:30:02.779Z,47.17
2022-12-01T16:32:35.967Z,46.50
2022-12-01T16:35:04.316Z,49.33
2022-12-01T16:37:31.154Z,46.03
2022-12-01T16:39:58.538Z,44.58
2022-12-01T16:42:25.113Z,39.87
2022-12-01T16:44:52.226Z,41.95
2022-12-01T16:47:25.687Z,44.90
2022-12-01T16:49:53.051Z,38.85
2022-12-01T16:55:25.494Z,40.13
2022-12-01T16:57:52.064Z,38.45
2022-12-01T17:00:18.937Z,42.05
2022-12-01T17:02:45.456Z,36.38
2022-12-01T17:05:11.991Z,41.83
2022-12-01T17:07:38.667Z,34.47
2022-12-01T17:10:06.177Z,32.08
2022-12-01T17:12:32.848Z,36.97
2022-12-01T17:14:59.376Z,31.75
2022-12-01T17:17:25.991Z,32.80
2022-12-01T17:19:52.988Z,31.37
2022-12-01T17:22:19.882Z,44.30
2022-12-01T17:24:46.383Z,38.03
2022-12-01T17:27:13.192Z,50.22
2022-12-01T17:29:45.725Z,45.90
2022-12-01T17:32:13.824Z,41.57
2022-12-01T17:34:41.056Z,49.65
2022-12-01T17:37:07.856Z,41.97
2022-12-01T17:39:34.429Z,42.97
2022-12-01T17:42:00.954Z,39.70
2022-12-01T17:44:27.518Z,43.63
2022-12-01T17:46:54.286Z,38.72
2022-12-01T17:49:21.174Z,40.83
2022-12-01T17:51:47.876Z,36.65
2022-12-01T17:54:15.800Z,44.15
2022-12-01T17:56:42.850Z,43.63
2022-12-01T17:59:09.543Z,45.83
2022-12-01T18:01:36.192Z,44.92
2022-12-01T18:04:03.869Z,41.30
2022-12-01T18:06:30.564Z,47.38
2022-12-01T18:08:57.703Z,47.80
2022-12-01T18:11:24.337Z,46.65
2022-12-01T18:13:52.155Z,47.65
2022-12-01T18:16:23.234Z,40.78
2022-12-01T18:18:50.483Z,48.70
2022-12-01T18:21:19.617Z,44.73
2022-12-01T18:23:51.037Z,43.13
2022-12-01T18:26:19.051Z,51.40
2022-12-01T18:28:45.659Z,42.30
2022-12-01T18:31:14.941Z,49.63
2022-12-01T18:33:43.789Z,48.73
2022-12-01T18:36:19.286Z,50.42
2022-12-01T18:38:49.201Z,46.50
2022-12-01T18:41:16.741Z,49.30
2022-12-01T18:43:44.343Z,48.28
2022-12-01T18:46:12.359Z,52.73
2022-12-01T18:48:45.283Z,46.78
2022-12-01T18:51:12.493Z,42.28
2022-12-01T18:53:39.665Z,46.58
2022-12-01T18:56:11.783Z,49.50
2022-12-01T18:58:39.356Z,53.20
2022-12-01T19:01:21.856Z,54.45
2022-12-01T19:03:48.771Z,46.10
2022-12-01T19:06:15.813Z,44.70
2022-12-01T19:08:42.637Z,48.78
2022-12-01T19:11:09.223Z,44.87
2022-12-01T19:13:35.893Z,47.40
2022-12-01T19:16:08.401Z,52.42
2022-12-01T19:18:36.179Z,43.28
2022-12-01T19:21:04.674Z,45.08
2022-12-01T19:23:31.574Z,44.80
2022-12-01T19:25:58.507Z,45.92
2022-12-01T19:28:25.022Z,45.80
2022-12-01T19:30:51.810Z,46.33
2022-12-01T19:33:18.300Z,45.28
2022-12-01T19:35:44.952Z,48.67
2022-12-01T19:38:11.694Z,47.95
2022-12-01T19:40:38.860Z,45.00
2022-12-01T19:43:05.584Z,48.35
2022-12-01T19:45:33.463Z,49.08
2022-12-01T19:48:00.117Z,47.30
2022-12-01T19:50:26.627Z,45.05
2022-12-01T19:52:53.170Z,45.53
2022-12-01T19:55:19.741Z,47.88
2022-12-01T19:57:51.397Z,45.13
2022-12-01T20:00:19.072Z,42.93
2022-12-01T20:02:45.692Z,37.67
2022-12-01T20:05:12.436Z,45.25
2022-12-01T20:07:39.150Z,46.35
2022-12-01T20:10:06.255Z,44.28
2022-12-01T20:12:34.818Z,48.30
2022-12-01T20:15:01.665Z,52.38
2022-12-01T20:17:28.192Z,43.78
2022-12-01T20:19:54.702Z,50.67
2022-12-01T20:22:21.235Z,49.25
2022-12-01T20:24:48.123Z,39.50
2022-12-01T20:27:14.814Z,47.10
2022-12-01T20:29:41.360Z,41.25
2022-12-01T20:32:26.902Z,44.78
2022-12-01T20:35:13.793Z,42.97
2022-12-01T20:38:00.762Z,43.57
2022-12-01T20:40:50.660Z,43.20
2022-12-01T20:43:38.242Z,47.53
2022-12-01T20:46:05.181Z,45.80
2022-12-01T20:48:32.290Z,44.58
2022-12-01T20:51:01.507Z,49.33
2022-12-01T20:53:28.189Z,45.72
2022-12-01T20:55:55.772Z,43.70
2022-12-01T20:58:23.790Z,28.08
2022-12-01T21:00:50.329Z,39.22
2022-12-01T21:03:16.851Z,41.40
2022-12-01T21:05:43.825Z,45.58
2022-12-01T21:08:12.577Z,42.30
2022-12-01T21:10:42.519Z,38.67
2022-12-01T21:13:38.385Z,38.40
2022-12-01T21:16:26.900Z,41.27
2022-12-01T21:18:59.888Z,41.65
2022-12-01T21:21:31.446Z,39.65
2022-12-01T21:24:18.689Z,43.78
2022-12-01T21:26:50.439Z,39.53
2022-12-01T21:29:20.063Z,41.27
2022-12-01T21:31:49.977Z,45.55
2022-12-01T21:34:23.006Z,42.97
2022-12-01T21:36:52.719Z,46.55
2022-12-01T21:39:22.100Z,42.35
2022-12-01T21:41:50.674Z,45.60
2022-12-01T21:44:19.354Z,45.08
2022-12-01T21:46:47.839Z,48.03
2022-12-01T21:49:37.129Z,47.38
2022-12-01T21:52:12.070Z,42.20
2022-12-01T21:54:38.695Z,48.70
2022-12-01T21:57:29.401Z,47.88
2022-12-01T22:00:08.354Z,51.72
2022-12-01T22:03:21.753Z,48.55
2022-12-01T22:06:13.699Z,50.15
2022-12-01T22:08:40.376Z,47.23
2022-12-01T22:11:14.937Z,47.33
2022-12-01T22:14:08.677Z,45.45
2022-12-01T22:17:00.964Z,57.33
2022-12-01T22:19:37.392Z,53.70
2022-12-01T22:22:09.942Z,49.17
2022-12-01T22:24:45.443Z,48.20
2022-12-01T22:27:11.951Z,45.80
2022-12-01T22:29:47.041Z,47.80
2022-12-01T22:32:13.574Z,51.65
2022-12-01T22:34:53.771Z,50.63
2022-12-01T22:37:23.043Z,61.03
2022-12-01T22:39:53.715Z,49.17
2022-12-01T22:42:34.714Z,48.83
2022-12-01T22:45:25.765Z,51.85
2022-12-01T22:48:00.309Z,53.77
2022-12-01T22:50:32.207Z,56.08
2022-12-01T22:53:10.807Z,53.15
2022-12-01T22:55:37.707Z,48.70
2022-12-01T22:58:22.651Z,48.65
2022-12-01T23:00:49.391Z,51.63
2022-12-01T23:03:16.636Z,52.85
2022-12-01T23:05:43.242Z,50.63
2022-12-01T23:08:11.040Z,50.92
2022-12-01T23:10:40.353Z,55.20
2022-12-01T23:13:19.763Z,57.87
2022-12-01T23:15:49.274Z,56.35
2022-12-01T23:18:27.213Z,54.47
2022-12-01T23:20:58.907Z,48.33
2022-12-01T23:23:34.624Z,55.00
2022-12-01T23:26:07.555Z,56.23
2022-12-01T23:28:36.911Z,56.13
2022-12-01T23:31:03.530Z,57.85
2022-12-01T23:33:32.679Z,53.63
2022-12-01T23:36:05.213Z,52.17
2022-12-01T23:38:38.253Z,48.10
2022-12-01T23:41:07.903Z,52.25
2022-12-01T23:43:40.126Z,54.22
2022-12-01T23:46:16.843Z,50.88
2022-12-01T23:49:05.215Z,51.17
2022-12-01T23:51:38.580Z,50.93
2022-12-01T23:54:14.222Z,50.60
2022-12-01T23:56:40.804Z,49.08
2022-12-01T23:59:13.431Z,53.90
